createdAt,value
2022-08-19T00:03:08.756Z,11.00
2022-08-19T00:08:02.389Z,9.88
2022-08-19T00:12:56.374Z,9.93
2022-08-19T00:17:50.326Z,9.88
2022-08-19T00:22:44.372Z,10.88
2022-08-19T00:27:37.621Z,10.68
2022-08-19T00:32:31.891Z,10.65
2022-08-19T00:37:27.896Z,10.48
2022-08-19T00:42:23.446Z,10.75
2022-08-19T00:47:17.079Z,11.65
2022-08-19T00:52:17.723Z,11.68
2022-08-19T00:57:14.994Z,12.05
2022-08-19T01:02:10.354Z,12.68
2022-08-19T01:07:08.723Z,13.27
2022-08-19T01:12:10.539Z,11.98
2022-08-19T01:17:04.731Z,13.00
2022-08-19T01:22:13.064Z,13.45
2022-08-19T01:27:10.898Z,14.70
2022-08-19T01:32:05.437Z,12.40
2022-08-19T01:36:59.492Z,10.38
2022-08-19T01:41:56.262Z,10.35
2022-08-19T01:46:50.988Z,9.27
2022-08-19T01:51:44.694Z,8.45
2022-08-19T01:56:38.612Z,9.55
2022-08-19T02:01:35.853Z,11.43
2022-08-19T02:06:29.871Z,12.40
2022-08-19T02:11:29.014Z,12.27
2022-08-19T02:16:22.711Z,11.10
2022-08-19T02:21:19.709Z,12.45
2022-08-19T02:26:14.024Z,15.40
2022-08-19T02:31:11.606Z,11.65
2022-08-19T02:36:08.099Z,8.77
2022-08-19T02:41:08.830Z,5.30
2022-08-19T02:46:03.350Z,3.17
2022-08-19T02:50:57.650Z,4.20
2022-08-19T02:55:52.339Z,3.70
2022-08-19T03:00:51.426Z,2.65
2022-08-19T03:05:56.029Z,2.20
2022-08-19T03:10:51.104Z,4.15
2022-08-19T03:15:49.627Z,3.03
2022-08-19T03:20:49.850Z,3.03
2022-08-19T03:25:46.675Z,3.00
2022-08-19T03:31:01.440Z,2.80
2022-08-19T03:36:05.815Z,2.38
2022-08-19T03:41:00.531Z,2.58
2022-08-19T03:46:06.493Z,3.50
2022-08-19T03:51:00.904Z,3.58
2022-08-19T03:55:55.731Z,2.45
2022-08-19T04:00:48.228Z,2.53
2022-08-19T04:05:42.131Z,2.80
2022-08-19T04:10:40.056Z,5.10
2022-08-19T04:15:40.758Z,4.00
2022-08-19T04:20:35.535Z,3.70
2022-08-19T04:25:29.556Z,3.92
2022-08-19T04:30:24.147Z,4.05
2022-08-19T04:35:23.174Z,5.90
2022-08-19T04:40:37.525Z,4.70
2022-08-19T04:45:39.633Z,3.72
2022-08-19T04:50:38.006Z,3.97
2022-08-19T04:55:34.357Z,4.15
2022-08-19T05:00:31.987Z,3.72
2022-08-19T05:05:29.524Z,2.60
2022-08-19T05:10:25.202Z,3.60
2022-08-19T05:15:20.727Z,3.45
2022-08-19T05:20:34.083Z,1.80
2022-08-19T05:25:29.204Z,1.70
2022-08-19T05:30:33.348Z,1.10
2022-08-19T05:35:35.598Z,1.50
2022-08-19T05:40:30.359Z,1.60
2022-08-19T05:45:23.860Z,2.20
2022-08-19T05:50:19.385Z,2.50
2022-08-19T05:55:13.267Z,2.20
2022-08-19T06:00:28.721Z,2.85
2022-08-19T06:05:23.605Z,1.50
2022-08-19T06:10:17.240Z,1.10
2022-08-19T06:15:13.431Z,1.25
2022-08-19T06:20:08.680Z,1.00
2022-08-19T06:25:02.838Z,0.80
2022-08-19T06:29:56.746Z,1.05
2022-08-19T06:34:51.349Z,0.80
2022-08-19T06:39:46.695Z,0.80
2022-08-19T06:44:42.803Z,1.08
2022-08-19T06:49:38.737Z,0.70
2022-08-19T06:54:33.043Z,0.80
2022-08-19T06:59:33.832Z,0.70
2022-08-19T07:04:46.641Z,1.30
2022-08-19T07:09:44.439Z,0.70
2022-08-19T07:14:47.954Z,0.70
2022-08-19T07:19:42.960Z,0.90
2022-08-19T07:24:38.547Z,1.08
2022-08-19T07:29:37.619Z,0.93
2022-08-19T07:34:32.984Z,0.98
2022-08-19T07:39:29.512Z,1.00
2022-08-19T07:44:23.356Z,0.88
2022-08-19T07:49:20.984Z,0.60
2022-08-19T07:54:14.389Z,0.80
2022-08-19T07:59:09.690Z,1.17
2022-08-19T08:04:25.011Z,1.40
2022-08-19T08:09:24.337Z,1.08
2022-08-19T08:14:29.115Z,0.75
2022-08-19T08:19:25.858Z,0.75
2022-08-19T08:24:19.158Z,0.77
2022-08-19T08:29:14.382Z,0.70
2022-08-19T08:34:08.690Z,0.70
2022-08-19T08:39:03.323Z,0.80
2022-08-19T08:43:58.600Z,0.70
2022-08-19T08:49:16.600Z,0.85
2022-08-19T08:54:14.295Z,0.70
2022-08-19T08:59:23.506Z,0.60
2022-08-19T09:04:17.232Z,0.57
2022-08-19T09:09:12.444Z,0.60
2022-08-19T09:14:29.129Z,0.50
2022-08-19T09:19:25.108Z,0.60
2022-08-19T09:24:19.094Z,0.50
2022-08-19T09:29:16.148Z,0.43
2022-08-19T09:34:20.749Z,0.73
2022-08-19T09:39:16.646Z,0.50
2022-08-19T09:44:10.132Z,0.82
2022-08-19T09:49:06.921Z,0.82
2022-08-19T09:54:05.250Z,0.40
2022-08-19T09:59:02.396Z,0.60
2022-08-19T10:03:58.130Z,1.00
2022-08-19T10:08:53.014Z,0.75
2022-08-19T10:13:46.859Z,0.80
2022-08-19T10:18:44.225Z,0.60
2022-08-19T10:23:46.731Z,0.70
2022-08-19T10:28:40.589Z,0.50
2022-08-19T10:33:40.938Z,1.38
2022-08-19T10:38:54.823Z,0.60
2022-08-19T10:43:54.232Z,1.08
2022-08-19T10:48:48.151Z,0.50
2022-08-19T10:53:44.760Z,0.53
2022-08-19T10:58:38.845Z,0.40
2022-08-19T11:03:32.822Z,0.47
2022-08-19T11:08:28.854Z,0.60
2022-08-19T11:13:25.076Z,0.30
2022-08-19T11:18:18.477Z,0.73
2022-08-19T11:23:12.117Z,0.30
2022-08-19T11:28:06.867Z,0.40
2022-08-19T11:33:01.962Z,1.60
2022-08-19T11:37:58.103Z,0.47
2022-08-19T11:42:58.834Z,0.47
2022-08-19T11:47:53.237Z,0.38
2022-08-19T11:52:47.316Z,0.40
2022-08-19T11:57:42.931Z,0.30
2022-08-19T12:02:37.077Z,0.60
2022-08-19T12:07:34.490Z,0.30
2022-08-19T12:12:28.918Z,0.40
2022-08-19T12:17:22.226Z,0.50
2022-08-19T12:22:16.478Z,0.40
2022-08-19T12:27:12.916Z,0.47
2022-08-19T12:32:07.218Z,0.38
2022-08-19T12:41:59.497Z,0.30
2022-08-19T12:46:54.137Z,0.40
2022-08-19T12:51:48.192Z,0.75
2022-08-19T12:56:43.547Z,0.52
2022-08-19T13:01:37.167Z,0.50
2022-08-19T13:06:30.835Z,0.50
2022-08-19T13:11:27.404Z,0.38
2022-08-19T13:16:22.100Z,0.30
2022-08-19T13:21:15.543Z,0.40
2022-08-19T13:26:11.339Z,0.43
2022-08-19T13:31:23.793Z,0.22
2022-08-19T13:36:18.230Z,0.50
2022-08-19T13:41:14.786Z,0.63
2022-08-19T13:46:14.893Z,0.40
2022-08-19T13:51:12.758Z,0.28
2022-08-19T13:56:12.238Z,0.30
2022-08-19T14:01:06.520Z,0.50
2022-08-19T14:06:00.152Z,0.30
2022-08-19T14:10:54.149Z,0.70
2022-08-19T14:15:48.690Z,0.90
2022-08-19T14:20:41.770Z,0.50
2022-08-19T14:25:35.827Z,0.50
2022-08-19T14:30:34.127Z,0.40
2022-08-19T14:35:31.795Z,0.50
2022-08-19T14:40:29.395Z,0.60
2022-08-19T14:45:24.408Z,0.70
2022-08-19T14:50:19.021Z,0.43
2022-08-19T14:55:14.111Z,0.50
2022-08-19T15:00:15.002Z,0.50
2022-08-19T15:05:11.859Z,0.90
2022-08-19T15:10:09.038Z,0.63
2022-08-19T15:15:02.677Z,0.70
2022-08-19T15:19:56.215Z,0.77
2022-08-19T15:24:49.587Z,0.60
2022-08-19T15:29:44.183Z,0.70
2022-08-19T15:34:37.981Z,1.17
2022-08-19T15:39:32.237Z,0.90
2022-08-19T15:44:26.141Z,0.70
2022-08-19T15:49:20.884Z,0.47
2022-08-19T15:54:34.135Z,0.65
2022-08-19T15:59:47.813Z,0.73
2022-08-19T16:05:00.184Z,0.85
2022-08-19T16:09:53.712Z,0.50
2022-08-19T16:14:49.342Z,0.95
2022-08-19T16:19:42.617Z,0.88
2022-08-19T16:24:36.363Z,1.27
2022-08-19T16:29:34.669Z,0.68
2022-08-19T16:34:34.603Z,0.90
2022-08-19T16:39:28.395Z,0.95
2022-08-19T16:44:22.356Z,0.60
2022-08-19T16:49:18.021Z,0.50
2022-08-19T16:54:15.578Z,1.00
2022-08-19T16:59:10.300Z,0.80
2022-08-19T17:04:05.525Z,0.98
2022-08-19T17:09:01.718Z,0.90
2022-08-19T17:13:56.419Z,0.82
2022-08-19T17:18:52.791Z,0.52
2022-08-19T17:23:47.199Z,0.68
2022-08-19T17:28:41.082Z,0.82
2022-08-19T17:33:41.059Z,0.70
2022-08-19T17:43:37.048Z,1.15
2022-08-19T17:48:39.507Z,0.98
2022-08-19T17:53:33.292Z,1.38
2022-08-19T17:58:27.380Z,0.80
2022-08-19T18:03:20.782Z,0.80
2022-08-19T18:08:15.758Z,0.85
2022-08-19T18:13:17.638Z,1.00
2022-08-19T18:18:15.384Z,1.20
2022-08-19T18:23:41.181Z,1.20
2022-08-19T18:28:22.581Z,1.00
2022-08-19T18:33:16.181Z,0.80
2022-08-19T18:38:30.037Z,0.98
2022-08-19T18:43:23.642Z,0.93
2022-08-19T18:48:36.018Z,0.98
2022-08-19T18:53:30.360Z,0.98
2022-08-19T18:58:34.455Z,1.60
2022-08-19T19:03:32.449Z,1.42
2022-08-19T19:13:21.146Z,1.38
2022-08-19T19:18:15.440Z,1.40
2022-08-19T19:23:09.820Z,1.52
2022-08-19T19:28:04.411Z,1.40
2022-08-19T19:32:57.901Z,1.40
2022-08-19T19:37:53.655Z,1.05
2022-08-19T19:42:48.982Z,1.33
2022-08-19T19:47:51.116Z,1.48
2022-08-19T19:52:46.691Z,1.15
2022-08-19T19:57:41.168Z,1.20
2022-08-19T20:02:34.776Z,1.23
2022-08-19T20:07:46.613Z,1.20
2022-08-19T20:12:40.690Z,1.40
2022-08-19T20:17:36.181Z,1.40
2022-08-19T20:22:33.894Z,1.25
2022-08-19T20:27:31.089Z,2.85
2022-08-19T20:32:30.685Z,1.90
2022-08-19T20:37:25.115Z,1.50
2022-08-19T20:42:18.740Z,1.40
2022-08-19T20:47:13.268Z,2.30
2022-08-19T20:52:07.389Z,1.83
2022-08-19T20:57:01.204Z,1.27
2022-08-19T21:01:55.477Z,1.50
2022-08-19T21:06:49.935Z,1.83
2022-08-19T21:11:44.887Z,1.27
2022-08-19T21:16:38.509Z,2.13
2022-08-19T21:21:36.310Z,1.70
2022-08-19T21:26:30.679Z,1.80
2022-08-19T21:31:25.973Z,1.20
2022-08-19T21:36:19.609Z,1.90
2022-08-19T21:41:12.906Z,1.75
2022-08-19T21:46:07.407Z,1.80
2022-08-19T21:51:01.064Z,1.33
2022-08-19T21:55:54.615Z,1.35
2022-08-19T22:00:48.463Z,1.02
2022-08-19T22:05:42.260Z,0.90
2022-08-19T22:10:36.917Z,1.40
2022-08-19T22:15:32.311Z,1.50
2022-08-19T22:20:28.666Z,1.35
2022-08-19T22:25:31.931Z,1.90
2022-08-19T22:30:27.463Z,1.10
2022-08-19T22:35:29.339Z,1.30
2022-08-19T22:40:23.643Z,1.52
2022-08-19T22:45:18.643Z,1.40
2022-08-19T22:50:14.017Z,0.85
2022-08-19T22:55:08.538Z,1.10
2022-08-19T23:00:02.199Z,1.45
2022-08-19T23:04:55.603Z,1.33
2022-08-19T23:09:49.388Z,1.20
2022-08-19T23:14:46.615Z,1.50
2022-08-19T23:19:40.758Z,1.40
2022-08-19T23:24:34.292Z,1.25
2022-08-19T23:29:47.328Z,1.00
2022-08-19T23:34:42.650Z,1.17
2022-08-19T23:39:36.904Z,3.00
2022-08-19T23:44:31.311Z,1.50
2022-08-19T23:49:25.503Z,1.40
2022-08-19T23:54:19.279Z,1.95
2022-08-19T23:59:13.059Z,1.00
